Time;durP1;ratioP1;P1;durP2;ratioP2;P2;SDS_P1;SDS_P2;PMS_P1;PMS_P2;Temp;Humidity;BMP_temperature;BMP_pressure;BME280_temperature;BME280_humidity;BME280_pressure;Samples;Min_cycle;Max_cycle;Signal;HPM_P1;HPM_P2
2021/08/08 01:57:51;;;;;;;4.40;2.20;;;16.50;51.60;;;;;;5726631;24;20446;-79
2021/08/08 04:08:48;;;;;;;7.07;2.60;;;14.70;59.50;;;;;;5683448;25;20486;-86
2021/08/08 04:18:10;;;;;;;;;;;;;;;;;;;;;
2021/08/08 04:21:20;;;;;;;;;;;;;;;;;;;;;
2021/08/08 04:24:31;;;;;;;;;;;;;;;;;;;;;
2021/08/08 04:27:43;;;;;;;6.70;3.83;;;14.40;65.70;;;;;;5864154;23;20561;-83
2021/08/08 04:30:11;;;;;;;6.70;3.50;;;14.40;66.20;;;;;;6010197;23;20421;-83
2021/08/08 04:36:08;;;;;;;14.40;5.37;;;14.50;66.20;;;;;;5909013;24;20437;-83
2021/08/08 04:38:49;;;;;;;11.23;4.93;;;14.50;67.00;;;;;;5934192;24;20416;-83
2021/08/08 05:02:04;;;;;;;;;;;;;;;;;;;;;
2021/08/08 05:35:01;;;;;;;6.53;2.90;;;16.00;49.40;;;;;;5676973;25;20201;-81
2021/08/08 05:37:30;;;;;;;5.93;2.73;;;16.10;49.60;;;;;;5781744;24;20428;-81
2021/08/08 06:07:41;;;;;;;6.00;2.67;;;16.20;46.40;;;;;;5739572;24;20529;-87
2021/08/08 06:37:44;;;;;;;7.27;2.47;;;17.30;38.50;;;;;;5110677;27;20574;-87
2021/08/08 06:43:51;;;;;;;9.00;2.13;;;17.70;34.70;;;;;;5047417;28;20848;-88
2021/08/08 06:46:53;;;;;;;6.63;2.53;;;17.70;34.70;;;;;;5090063;28;20576;-85
2021/08/08 06:53:10;;;;;;;5.70;2.23;;;18.10;33.50;;;;;;4927446;29;20821;-87
2021/08/08 06:55:38;;;;;;;6.43;2.20;;;18.00;32.50;;;;;;5016606;28;20452;-88
2021/08/08 06:58:07;;;;;;;5.73;2.37;;;18.10;33.10;;;;;;5091656;28;20515;-89
2021/08/08 07:03:23;;;;;;;6.07;2.10;;;18.20;32.00;;;;;;5107770;28;20460;-85
2021/08/08 07:06:26;;;;;;;11.50;2.23;;;18.10;32.10;;;;;;5109783;28;20556;-86
2021/08/08 07:15:20;;;;;;;9.13;2.40;;;17.80;30.80;;;;;;5092444;28;20458;-86
2021/08/08 07:17:52;;;;;;;9.97;3.10;;;17.80;32.10;;;;;;5089705;28;20458;-87
2021/08/08 07:20:19;;;;;;;8.47;2.43;;;17.90;31.30;;;;;;5088633;28;20507;-85
2021/08/08 07:29:24;;;;;;;6.35;2.67;;;18.80;28.20;;;;;;5372787;22;20462;-87
2021/08/08 07:31:55;;;;;;;9.03;1.80;;;19.20;26.50;;;;;;5059528;28;20192;-75
2021/08/08 07:34:22;;;;;;;10.90;2.23;;;19.10;24.60;;;;;;5068842;28;20600;-77
2021/08/08 07:36:49;;;;;;;12.43;2.50;;;19.50;23.50;;;;;;5064868;28;20521;-76
2021/08/08 07:45:14;;;;;;;8.03;4.53;;;19.50;23.60;;;;;;5924599;22;20545;-80
2021/08/08 07:51:17;;;;;;;6.73;2.10;;;19.40;24.60;;;;;;4869729;29;20454;-78
2021/08/08 07:53:44;;;;;;;7.80;2.30;;;19.40;22.90;;;;;;4987112;28;20940;-81
2021/08/08 07:56:11;;;;;;;9.33;2.10;;;19.20;21.50;;;;;;5034092;28;20491;-81
2021/08/08 07:58:38;;;;;;;15.00;2.63;;;19.10;21.50;;;;;;5035278;28;20488;-79
2021/08/08 08:01:05;;;;;;;8.43;2.70;;;18.90;22.10;;;;;;5033695;28;20479;-76
2021/08/08 08:03:32;;;;;;;13.30;3.20;;;18.90;21.90;;;;;;5018200;28;20488;-76
2021/08/08 08:13:42;;;;;;;9.73;2.30;;;19.50;21.20;;;;;;5774100;23;20525;-80
2021/08/08 08:16:09;;;;;;;5.70;2.00;;;20.00;21.50;;;;;;5035081;28;20805;-80
2021/08/08 08:18:38;;;;;;;10.90;1.80;;;20.10;19.80;;;;;;5035058;28;20448;-80
2021/08/08 08:21:05;;;;;;;8.73;2.10;;;20.60;20.10;;;;;;5034735;28;20456;-80
2021/08/08 08:23:32;;;;;;;6.50;2.10;;;20.60;18.00;;;;;;5034881;28;20456;-78
2021/08/08 08:26:11;;;;;;;14.73;4.50;;;20.60;18.60;;;;;;5034118;28;20851;-86
2021/08/08 08:41:27;;;;;;;10.93;1.80;;;21.10;14.60;;;;;;5049811;28;20467;-78
2021/08/08 08:43:55;;;;;;;7.60;2.00;;;21.20;13.30;;;;;;5054060;28;20447;-78
2021/08/08 08:46:23;;;;;;;9.73;2.17;;;21.40;13.20;;;;;;5054078;28;20487;-77
2021/08/08 08:48:54;;;;;;;8.00;3.00;;;21.30;13.10;;;;;;5053181;28;20456;-77
2021/08/08 08:51:27;;;;;;;6.53;1.70;;;21.50;13.30;;;;;;5054078;28;20462;-78
2021/08/08 08:53:58;;;;;;;10.77;1.80;;;21.30;13.20;;;;;;5054103;28;20535;-80
2021/08/08 08:56:27;;;;;;;7.53;2.40;;;21.00;13.80;;;;;;5052707;28;20459;-84
2021/08/08 08:58:54;;;;;;;5.90;1.60;;;20.60;15.00;;;;;;5054360;28;20455;-82
2021/08/08 09:01:21;;;;;;;5.67;2.10;;;20.60;14.70;;;;;;5053904;28;20479;-82
2021/08/08 09:03:48;;;;;;;12.13;2.47;;;20.90;15.40;;;;;;5054098;28;20482;-82
2021/08/08 09:06:15;;;;;;;12.90;2.13;;;20.90;13.80;;;;;;5053804;28;21057;-84
2021/08/08 09:08:42;;;;;;;11.30;2.43;;;20.50;14.20;;;;;;5053850;28;20542;-81
2021/08/08 09:11:10;;;;;;;10.67;2.30;;;20.50;15.70;;;;;;5052550;28;20546;-82
2021/08/08 09:13:54;;;;;;;6.93;1.97;;;20.20;15.90;;;;;;5053679;28;20461;-81
2021/08/08 09:16:23;;;;;;;10.57;2.13;;;20.10;15.80;;;;;;5051793;28;20501;-80
2021/08/08 09:18:51;;;;;;;8.40;2.20;;;20.30;16.90;;;;;;5053661;28;20451;-80
2021/08/08 09:21:30;;;;;;;11.23;2.20;;;21.10;15.50;;;;;;5053467;28;20554;-85
2021/08/08 09:23:59;;;;;;;10.90;2.50;;;21.90;14.00;;;;;;5053562;28;20554;-78
2021/08/08 09:26:31;;;;;;;9.00;2.10;;;22.40;12.90;;;;;;5051717;28;20489;-82
2021/08/08 09:29:08;;;;;;;12.83;2.10;;;22.50;12.00;;;;;;5053168;28;20534;-80
2021/08/08 09:31:43;;;;;;;6.03;2.13;;;22.10;11.60;;;;;;5053299;28;20509;-81
2021/08/08 09:34:22;;;;;;;11.27;2.50;;;21.80;12.10;;;;;;5053202;28;20498;-79
2021/08/08 09:51:13;;;;;;;5.40;2.10;;;21.60;13.30;;;;;;5031665;28;20494;-76
2021/08/08 09:53:40;;;;;;;9.13;2.40;;;21.40;13.20;;;;;;5033098;28;20456;-79
2021/08/08 09:56:17;;;;;;;5.90;1.77;;;21.20;12.20;;;;;;5031919;28;20550;-77
2021/08/08 09:58:47;;;;;;;9.23;2.40;;;21.00;14.10;;;;;;5033162;28;20460;-80
2021/08/08 10:01:14;;;;;;;5.80;1.80;;;20.60;13.80;;;;;;5032664;28;20499;-77
2021/08/08 10:03:41;;;;;;;5.70;1.90;;;20.70;13.90;;;;;;5033010;28;20452;-76
2021/08/08 10:06:11;;;;;;;4.83;2.00;;;20.70;13.20;;;;;;5033025;28;20499;-82
2021/08/08 10:08:39;;;;;;;8.30;2.30;;;20.70;11.40;;;;;;5033943;28;20460;-88
2021/08/08 10:11:06;;;;;;;5.67;1.90;;;21.00;12.90;;;;;;5032198;28;20840;-89
2021/08/08 11:12:07;;;;;;;7.87;2.37;;;22.90;6.60;;;;;;5852983;23;20526;-80
2021/08/08 12:06:12;;;;;;;4.13;1.60;;;27.00;1.00;;;;;;5321961;23;20972;-79
2021/08/08 12:16:33;;;;;;;6.10;1.73;;;26.20;1.00;;;;;;4895118;28;20486;-82
2021/08/08 13:55:24;;;;;;;4.93;1.40;;;21.20;7.20;;;;;;4991534;28;20470;-86
2021/08/08 13:57:51;;;;;;;4.73;1.10;;;21.60;8.00;;;;;;4992346;28;20490;-77
2021/08/08 14:00:18;;;;;;;5.50;1.67;;;21.50;4.40;;;;;;4993626;28;20489;-76
2021/08/08 14:23:40;;;;;;;7.13;1.43;;;21.00;2.40;;;;;;4764764;29;20487;-80
2021/08/08 14:26:14;;;;;;;3.43;1.07;;;20.30;4.70;;;;;;4843362;29;20494;-80
2021/08/08 14:28:43;;;;;;;3.60;1.10;;;19.90;5.60;;;;;;4914291;29;20469;-80
2021/08/08 14:31:11;;;;;;;3.47;1.00;;;19.80;6.20;;;;;;4951337;29;20536;-80
2021/08/08 14:33:39;;;;;;;4.97;1.00;;;20.30;7.60;;;;;;4950779;29;20456;-80
2021/08/08 14:36:31;;;;;;;5.47;1.20;;;20.70;5.60;;;;;;4957241;28;20544;-81
2021/08/08 14:39:29;;;;;;;4.17;1.23;;;21.40;4.10;;;;;;4991711;28;20457;-81
2021/08/08 14:42:33;;;;;;;5.90;1.10;;;22.40;3.00;;;;;;4980086;28;20446;-81
2021/08/08 14:45:01;;;;;;;5.00;1.53;;;24.50;1.00;;;;;;4935443;28;20478;-80
2021/08/08 14:47:32;;;;;;;3.77;1.10;;;25.30;1.00;;;;;;4974579;28;20494;-78
2021/08/08 14:50:13;;;;;;;3.47;1.00;;;24.20;1.00;;;;;;4976302;28;20466;-79
2021/08/08 14:53:25;;;;;;;4.30;1.20;;;23.10;1.00;;;;;;4973994;28;20509;-79
2021/08/08 14:55:59;;;;;;;6.70;1.23;;;22.10;1.00;;;;;;4951455;28;20477;-78
2021/08/08 14:58:27;;;;;;;6.00;1.30;;;22.10;1.00;;;;;;4994464;28;20488;-75
2021/08/08 15:00:54;;;;;;;4.40;1.40;;;22.10;1.00;;;;;;4996167;28;20473;-77
2021/08/08 15:03:22;;;;;;;6.33;1.50;;;23.00;1.00;;;;;;4996072;28;20969;-81
2021/08/08 15:05:55;;;;;;;4.87;1.30;;;24.30;1.00;;;;;;4995903;28;20553;-79
2021/08/08 15:08:22;;;;;;;3.80;1.23;;;24.80;1.00;;;;;;4996133;28;20797;-77
2021/08/08 15:10:49;;;;;;;5.70;1.43;;;25.10;1.00;;;;;;4994497;28;20829;-83
2021/08/08 15:13:19;;;;;;;4.33;1.10;;;26.10;1.00;;;;;;4996088;28;20482;-78
2021/08/08 15:15:48;;;;;;;10.00;1.50;;;26.00;1.00;;;;;;4995751;28;20469;-81
2021/08/08 15:18:15;;;;;;;5.93;1.70;;;26.10;1.00;;;;;;4995847;28;20485;-78
2021/08/08 15:21:21;;;;;;;5.33;1.67;;;25.90;1.00;;;;;;4995655;28;20817;-82
2021/08/08 15:23:48;;;;;;;5.67;1.50;;;25.50;1.00;;;;;;4985970;28;20490;-81
2021/08/08 15:26:22;;;;;;;6.60;1.87;;;25.70;1.00;;;;;;4994674;28;20478;-81
2021/08/08 15:29:34;;;;;;;5.53;1.80;;;26.10;1.00;;;;;;4961141;28;20458;-80
2021/08/08 15:32:22;;;;;;;5.63;1.27;;;25.80;1.00;;;;;;4995735;28;20453;-80
2021/08/08 15:34:54;;;;;;;4.10;1.40;;;26.00;1.00;;;;;;4995492;28;20462;-80
2021/08/08 15:37:21;;;;;;;5.17;1.40;;;25.40;1.00;;;;;;4995456;28;20481;-80
2021/08/08 15:39:52;;;;;;;3.60;0.90;;;25.20;1.00;;;;;;4995392;28;20458;-81
2021/08/08 15:42:22;;;;;;;9.07;1.90;;;25.30;1.00;;;;;;4981128;28;20451;-80
2021/08/08 15:44:54;;;;;;;8.20;2.03;;;25.70;1.00;;;;;;4976203;28;20465;-81
2021/08/08 15:47:27;;;;;;;4.33;1.43;;;25.50;1.00;;;;;;4976103;28;20465;-80
2021/08/08 16:14:15;;;;;;;4.03;1.10;;;22.00;1.70;;;;;;6228365;22;1337906;-83
2021/08/08 16:17:13;;;;;;;4.10;1.40;;;22.60;1.00;;;;;;6238798;23;20250;-83
2021/08/08 16:20:03;;;;;;;4.07;1.03;;;21.60;1.00;;;;;;6159334;23;20417;-82
2021/08/08 16:22:54;;;;;;;5.40;1.60;;;21.00;1.10;;;;;;6170848;23;20433;-82
2021/08/08 16:29:08;;;;;;;;;;;;;;;;;;;;;
2021/08/08 16:31:53;;;;;;;;;;;;;;;;;;;;;
2021/08/08 16:34:23;;;;;;;4.33;1.33;;;21.40;1.00;;;;;;6131138;23;20746;-82
2021/08/08 16:37:35;;;;;;;;;;;;;;;;;;;;;
2021/08/08 16:40:35;;;;;;;3.90;1.40;;;22.00;1.00;;;;;;6108808;23;20929;-83
2021/08/08 16:43:03;;;;;;;3.50;1.10;;;22.10;1.00;;;;;;6073476;23;20418;-78
2021/08/08 16:45:32;;;;;;;5.50;1.60;;;23.00;1.00;;;;;;6110769;23;20404;-79
2021/08/08 16:50:55;;;;;;;;;;;;;;;;;;;;;
2021/08/08 16:53:23;;;;;;;4.97;1.60;;;23.90;1.00;;;;;;6197819;23;20431;-80
2021/08/08 16:55:51;;;;;;;5.30;1.50;;;23.20;1.00;;;;;;6187810;23;20400;-82
2021/08/08 16:58:27;;;;;;;3.87;1.20;;;22.40;1.00;;;;;;6191980;23;20400;-84
2021/08/08 17:00:57;;;;;;;4.60;1.20;;;22.40;1.00;;;;;;6191889;23;20787;-84
2021/08/08 17:03:24;;;;;;;5.67;1.50;;;23.00;1.00;;;;;;6191825;23;20400;-83
2021/08/08 17:05:52;;;;;;;5.20;1.53;;;22.50;1.00;;;;;;6202090;23;20463;-84
2021/08/08 17:08:19;;;;;;;3.83;0.90;;;22.10;1.00;;;;;;6192143;23;20427;-84
2021/08/08 17:10:46;;;;;;;5.67;1.50;;;21.60;1.00;;;;;;6190741;23;20455;-82
2021/08/08 17:13:15;;;;;;;4.47;1.30;;;22.20;1.00;;;;;;6187767;23;20437;-83
2021/08/08 17:15:46;;;;;;;4.43;1.40;;;22.60;1.00;;;;;;6195448;23;20412;-82
2021/08/08 17:18:13;;;;;;;4.90;1.20;;;23.10;1.00;;;;;;6185618;23;20413;-77
2021/08/08 17:20:39;;;;;;;6.30;1.30;;;24.20;1.00;;;;;;6185143;23;20734;-78
2021/08/08 17:23:07;;;;;;;5.57;1.20;;;25.10;1.00;;;;;;6185198;23;20805;-79
2021/08/08 17:50:56;;;;;;;5.13;1.67;;;20.70;1.00;;;;;;5799287;24;20413;-82
2021/08/08 17:53:49;;;;;;;4.40;1.40;;;20.00;1.00;;;;;;5968999;23;20201;-82
2021/08/08 17:56:21;;;;;;;4.10;1.70;;;19.80;4.40;;;;;;6007651;23;20418;-82
2021/08/08 17:58:49;;;;;;;5.37;1.33;;;19.50;4.20;;;;;;6057868;23;20844;-82
2021/08/08 18:01:22;;;;;;;5.53;1.60;;;19.20;6.20;;;;;;6186295;23;20424;-81
2021/08/08 19:01:09;;;;;;;;;;;;;;;;;;;;;
2021/08/08 19:16:36;;;;;;;81.83;78.23;;;14.10;99.90;;;;;;6031868;23;20429;-85
2021/08/08 19:38:07;;;;;;;77.07;73.57;;;14.30;99.90;;;;;;6043513;23;20267;-85
2021/08/08 19:40:38;;;;;;;76.67;72.87;;;14.10;99.90;;;;;;6081785;23;20414;-86
2021/08/08 19:43:19;;;;;;;82.73;78.87;;;14.20;99.90;;;;;;6123291;23;20521;-84
2021/08/08 19:45:56;;;;;;;68.47;65.37;;;14.20;99.90;;;;;;6148330;23;20421;-87
2021/08/08 19:48:25;;;;;;;55.97;53.57;;;14.30;99.90;;;;;;6195466;23;20502;-89
2021/08/08 19:51:13;;;;;;;50.60;48.10;;;14.10;99.90;;;;;;6195094;23;20412;-85
2021/08/08 19:53:42;;;;;;;43.30;41.30;;;14.20;99.90;;;;;;6186432;23;20500;-79
2021/08/08 19:56:09;;;;;;;45.47;43.47;;;14.20;99.90;;;;;;6183968;23;20979;-84
2021/08/08 20:01:54;;;;;;;49.17;46.27;;;14.30;99.90;;;;;;6157009;23;20428;-88
